createdAt,value
2018-09-21T00:00:02.095Z,19.40
2018-09-21T00:02:29.563Z,19.50
2018-09-21T00:04:56.927Z,19.50
2018-09-21T00:07:24.364Z,19.50
2018-09-21T00:09:51.769Z,19.50
2018-09-21T00:12:19.298Z,19.50
2018-09-21T00:14:46.623Z,19.50
2018-09-21T00:17:13.991Z,19.40
2018-09-21T00:19:41.411Z,19.50
2018-09-21T00:22:08.814Z,19.50
2018-09-21T00:24:36.225Z,19.50
2018-09-21T00:27:03.555Z,19.50
2018-09-21T00:29:31.013Z,19.50
2018-09-21T00:31:58.457Z,19.40
2018-09-21T00:34:25.852Z,19.30
2018-09-21T00:36:53.351Z,19.40
2018-09-21T00:39:20.777Z,19.40
2018-09-21T00:41:48.258Z,19.40
2018-09-21T00:44:15.663Z,19.40
2018-09-21T00:46:43.126Z,19.30
2018-09-21T00:49:10.597Z,19.30
2018-09-21T00:51:38.022Z,19.30
2018-09-21T00:54:05.825Z,19.30
2018-09-21T00:56:33.295Z,19.30
2018-09-21T00:59:00.650Z,19.30
2018-09-21T01:01:28.418Z,19.30
2018-09-21T01:03:55.830Z,19.30
2018-09-21T01:06:23.326Z,19.40
2018-09-21T01:08:50.660Z,19.30
2018-09-21T01:11:18.049Z,19.20
2018-09-21T01:13:45.409Z,19.20
2018-09-21T01:16:12.834Z,19.10
2018-09-21T01:18:40.298Z,19.00
2018-09-21T01:21:07.726Z,18.90
2018-09-21T01:23:35.098Z,18.80
2018-09-21T01:26:02.673Z,18.60
2018-09-21T01:28:30.218Z,18.60
2018-09-21T01:30:57.591Z,18.60
2018-09-21T01:33:25.067Z,18.60
2018-09-21T01:35:52.528Z,18.60
2018-09-21T01:38:19.880Z,18.50
2018-09-21T01:40:47.345Z,18.50
2018-09-21T01:43:14.752Z,18.50
2018-09-21T01:45:42.217Z,18.50
2018-09-21T01:48:09.528Z,18.40
2018-09-21T01:50:37.218Z,18.50
2018-09-21T01:53:04.591Z,18.50
2018-09-21T01:55:31.952Z,18.50
2018-09-21T01:57:59.557Z,18.50
2018-09-21T02:00:26.935Z,18.50
2018-09-21T02:02:54.425Z,18.50
2018-09-21T02:05:21.908Z,18.50
2018-09-21T02:07:49.316Z,18.50
2018-09-21T02:10:16.665Z,18.40
2018-09-21T02:12:44.127Z,18.30
2018-09-21T02:15:11.557Z,18.30
2018-09-21T02:17:39.129Z,18.30
2018-09-21T02:20:06.459Z,18.30
2018-09-21T02:22:33.878Z,18.20
2018-09-21T02:25:01.175Z,18.20
2018-09-21T02:27:28.725Z,18.20
2018-09-21T02:29:56.095Z,18.10
2018-09-21T02:32:23.503Z,18.10
2018-09-21T02:34:50.921Z,18.20
2018-09-21T02:37:18.324Z,18.10
2018-09-21T02:39:45.833Z,18.10
2018-09-21T02:42:13.210Z,18.10
2018-09-21T02:44:40.617Z,18.10
2018-09-21T02:47:08.239Z,18.10
2018-09-21T02:49:35.562Z,18.10
2018-09-21T02:52:03.047Z,18.20
2018-09-21T02:54:30.484Z,18.20
2018-09-21T02:56:58.009Z,18.20
2018-09-21T02:59:25.375Z,18.20
2018-09-21T03:01:52.787Z,18.20
2018-09-21T03:04:20.273Z,18.20
2018-09-21T03:06:47.697Z,18.20
2018-09-21T03:09:15.025Z,18.20
2018-09-21T03:11:42.421Z,18.20
2018-09-21T03:14:09.801Z,18.10
2018-09-21T03:16:37.315Z,18.10
2018-09-21T03:19:04.773Z,18.10
2018-09-21T03:21:32.131Z,18.10
2018-09-21T03:23:59.647Z,18.20
2018-09-21T03:26:26.951Z,18.20
2018-09-21T03:28:54.838Z,18.30
2018-09-21T03:31:22.434Z,18.30
2018-09-21T03:33:49.870Z,18.30
2018-09-21T03:36:17.421Z,18.30
2018-09-21T03:38:44.786Z,18.30
2018-09-21T03:41:12.202Z,18.20
2018-09-21T03:43:39.687Z,18.20
2018-09-21T03:46:07.749Z,18.30
2018-09-21T03:48:35.175Z,18.20
2018-09-21T03:51:02.695Z,18.20
2018-09-21T03:53:30.107Z,18.20
2018-09-21T03:55:57.519Z,18.20
2018-09-21T03:58:24.999Z,18.20
2018-09-21T04:00:52.549Z,18.20
2018-09-21T04:03:19.998Z,18.10
2018-09-21T04:05:47.525Z,18.00
2018-09-21T04:08:15.001Z,18.00
2018-09-21T04:10:42.354Z,18.00
2018-09-21T04:13:09.735Z,18.00
2018-09-21T04:15:37.159Z,18.00
2018-09-21T04:18:04.867Z,17.90
2018-09-21T04:20:32.455Z,18.00
2018-09-21T04:23:25.198Z,18.00
2018-09-21T04:25:53.047Z,17.90
2018-09-21T04:28:20.521Z,17.90
2018-09-21T04:30:48.719Z,17.90
2018-09-21T04:33:16.222Z,17.90
2018-09-21T04:35:43.627Z,18.00
2018-09-21T04:38:11.140Z,18.00
2018-09-21T04:40:38.503Z,17.90
2018-09-21T04:43:06.081Z,17.80
2018-09-21T04:45:33.555Z,17.80
2018-09-21T04:48:01.017Z,17.80
2018-09-21T04:50:28.491Z,17.80
2018-09-21T04:52:55.974Z,17.80
2018-09-21T04:55:23.446Z,17.80
2018-09-21T04:57:50.932Z,17.90
2018-09-21T05:00:18.329Z,17.90
2018-09-21T05:02:45.862Z,17.90
2018-09-21T05:05:13.288Z,17.80
2018-09-21T05:07:40.691Z,17.70
2018-09-21T05:10:08.119Z,17.60
2018-09-21T05:12:35.682Z,17.60
2018-09-21T05:15:03.205Z,17.60
2018-09-21T05:17:30.707Z,17.60
2018-09-21T05:19:58.079Z,17.60
2018-09-21T05:22:25.571Z,17.60
2018-09-21T05:24:53.051Z,17.60
2018-09-21T05:27:24.221Z,17.60
2018-09-21T05:29:51.614Z,17.70
2018-09-21T05:32:18.914Z,17.70
2018-09-21T05:34:46.607Z,17.70
2018-09-21T05:37:13.790Z,17.70
2018-09-21T05:39:41.235Z,17.70
2018-09-21T05:42:08.653Z,17.70
2018-09-21T05:44:35.992Z,17.70
2018-09-21T05:47:03.931Z,17.70
2018-09-21T05:49:31.652Z,17.70
2018-09-21T05:51:59.372Z,17.70
2018-09-21T05:54:27.670Z,17.70
2018-09-21T05:57:04.857Z,17.60
2018-09-21T05:59:35.739Z,17.60
2018-09-21T06:02:04.736Z,17.70
2018-09-21T06:04:32.219Z,17.80
2018-09-21T06:07:00.434Z,17.80
2018-09-21T06:09:27.948Z,17.90
2018-09-21T06:11:55.298Z,18.00
2018-09-21T06:14:22.738Z,18.10
2018-09-21T06:16:50.178Z,18.20
2018-09-21T06:19:18.714Z,18.30
2018-09-21T06:21:46.445Z,18.50
2018-09-21T06:24:21.761Z,18.60
2018-09-21T06:26:51.114Z,18.70
2018-09-21T06:29:22.136Z,18.90
2018-09-21T06:31:52.918Z,19.00
2018-09-21T06:34:22.801Z,19.10
2018-09-21T06:36:51.082Z,19.20
2018-09-21T06:39:20.312Z,19.30
2018-09-21T06:41:49.158Z,19.30
2018-09-21T06:44:18.794Z,19.40
2018-09-21T06:46:46.136Z,19.40
2018-09-21T06:49:13.568Z,19.50
2018-09-21T06:51:40.976Z,19.60
2018-09-21T06:54:08.425Z,19.60
2018-09-21T06:56:35.781Z,19.60
2018-09-21T06:59:03.256Z,19.70
2018-09-21T07:01:30.693Z,19.70
2018-09-21T07:03:58.041Z,19.70
2018-09-21T07:06:25.500Z,19.80
2018-09-21T07:08:53.091Z,20.00
2018-09-21T07:11:20.513Z,20.00
2018-09-21T07:13:47.930Z,20.10
2018-09-21T07:16:15.388Z,20.30
2018-09-21T07:18:42.797Z,20.50
2018-09-21T07:21:10.193Z,20.60
2018-09-21T07:23:37.617Z,20.70
2018-09-21T07:26:05.123Z,21.00
2018-09-21T07:28:32.481Z,21.20
2018-09-21T07:30:59.918Z,21.30
2018-09-21T07:33:27.357Z,21.40
2018-09-21T07:35:54.801Z,21.50
2018-09-21T07:38:22.242Z,21.70
2018-09-21T07:40:49.695Z,21.60
2018-09-21T07:43:17.109Z,21.90
2018-09-21T07:45:44.577Z,21.80
2018-09-21T07:48:11.951Z,21.80
2018-09-21T07:50:39.429Z,21.90
2018-09-21T07:53:06.839Z,22.10
2018-09-21T07:55:34.317Z,22.20
2018-09-21T07:58:01.747Z,22.40
2018-09-21T08:00:29.388Z,22.50
2018-09-21T08:02:56.909Z,22.60
2018-09-21T08:05:31.554Z,22.70
2018-09-21T08:07:59.459Z,22.90
2018-09-21T08:10:26.874Z,23.00
2018-09-21T08:12:54.325Z,23.00
2018-09-21T08:15:21.873Z,22.90
2018-09-21T08:17:49.247Z,22.80
2018-09-21T08:20:16.737Z,22.90
2018-09-21T08:22:44.095Z,23.00
2018-09-21T08:25:11.580Z,23.20
2018-09-21T08:27:39.047Z,23.30
2018-09-21T08:30:06.499Z,23.50
2018-09-21T08:32:33.823Z,23.60
2018-09-21T08:35:01.253Z,23.60
2018-09-21T08:37:28.671Z,23.90
2018-09-21T08:39:56.071Z,24.00
2018-09-21T08:42:23.431Z,24.20
2018-09-21T08:44:50.801Z,24.30
2018-09-21T08:47:18.119Z,24.40
2018-09-21T08:49:45.638Z,24.40
2018-09-21T08:52:13.104Z,24.30
2018-09-21T08:54:40.579Z,24.60
2018-09-21T08:57:08.062Z,25.10
2018-09-21T08:59:35.467Z,25.40
2018-09-21T09:02:02.896Z,25.10
2018-09-21T09:04:30.224Z,25.10
2018-09-21T09:06:57.685Z,25.20
2018-09-21T09:09:25.055Z,25.20
2018-09-21T09:11:52.634Z,25.10
2018-09-21T09:14:20.131Z,25.00
2018-09-21T09:16:47.664Z,25.00
2018-09-21T09:19:15.121Z,25.20
2018-09-21T09:21:42.554Z,25.20
2018-09-21T09:24:09.999Z,25.50
2018-09-21T09:26:41.600Z,25.90
2018-09-21T09:29:09.127Z,26.10
2018-09-21T09:31:36.492Z,25.70
2018-09-21T09:34:04.006Z,25.30
2018-09-21T09:36:31.473Z,25.20
2018-09-21T09:38:58.934Z,25.10
2018-09-21T09:41:26.310Z,25.00
2018-09-21T09:43:53.777Z,25.00
2018-09-21T09:46:21.893Z,24.90
2018-09-21T09:48:49.359Z,24.90
2018-09-21T09:51:17.862Z,25.20
2018-09-21T09:53:45.657Z,25.60
2018-09-21T09:56:13.627Z,26.00
2018-09-21T09:58:41.892Z,26.10
2018-09-21T10:01:09.418Z,26.30
2018-09-21T10:03:36.855Z,26.70
2018-09-21T10:06:04.190Z,27.10
2018-09-21T10:08:31.673Z,27.30
2018-09-21T10:10:59.058Z,27.60
2018-09-21T10:13:26.491Z,27.40
2018-09-21T10:15:53.941Z,27.10
2018-09-21T10:18:22.154Z,27.30
2018-09-21T10:20:49.774Z,27.60
2018-09-21T10:23:20.160Z,27.90
2018-09-21T10:25:47.576Z,27.90
2018-09-21T10:28:15.156Z,28.10
2018-09-21T10:30:42.362Z,28.50
2018-09-21T10:33:10.467Z,28.80
2018-09-21T10:35:38.302Z,29.00
2018-09-21T10:38:05.631Z,29.20
2018-09-21T10:40:33.132Z,29.10
2018-09-21T10:43:00.577Z,29.40
2018-09-21T10:45:27.926Z,29.30
2018-09-21T10:47:55.385Z,29.20
2018-09-21T10:50:22.785Z,28.70
2018-09-21T10:52:50.174Z,28.70
2018-09-21T10:55:17.591Z,28.60
2018-09-21T10:57:45.077Z,28.30
2018-09-21T11:00:12.549Z,28.10
2018-09-21T11:02:39.968Z,28.10
2018-09-21T11:05:07.555Z,28.10
2018-09-21T11:07:34.985Z,27.80
2018-09-21T11:10:02.644Z,27.80
2018-09-21T11:12:30.035Z,27.70
2018-09-21T11:14:57.706Z,27.70
2018-09-21T11:17:25.022Z,27.90
2018-09-21T11:19:52.543Z,27.90
2018-09-21T11:22:20.023Z,27.70
2018-09-21T11:24:47.474Z,27.90
2018-09-21T11:27:14.894Z,28.00
2018-09-21T11:29:42.315Z,28.20
2018-09-21T11:32:09.766Z,28.10
2018-09-21T11:34:37.105Z,27.90
2018-09-21T11:37:04.578Z,27.90
2018-09-21T11:39:32.014Z,27.80
2018-09-21T11:41:59.502Z,27.70
2018-09-21T11:44:27.652Z,27.70
2018-09-21T11:46:56.407Z,27.60
2018-09-21T11:49:25.110Z,27.70
2018-09-21T11:51:52.634Z,27.70
2018-09-21T11:54:20.874Z,27.80
2018-09-21T11:56:52.629Z,28.00
2018-09-21T11:59:20.164Z,28.20
2018-09-21T12:01:47.608Z,28.20
2018-09-21T12:04:15.257Z,28.20
2018-09-21T12:06:42.660Z,28.10
2018-09-21T12:09:10.094Z,28.00
2018-09-21T12:11:37.515Z,27.70
2018-09-21T12:14:04.944Z,27.60
2018-09-21T12:16:32.362Z,27.60
2018-09-21T12:18:59.854Z,27.60
2018-09-21T12:21:27.278Z,27.60
2018-09-21T12:23:54.791Z,27.60
2018-09-21T12:26:22.734Z,27.70
2018-09-21T12:28:50.150Z,27.70
2018-09-21T12:31:17.640Z,27.60
2018-09-21T12:33:45.054Z,27.70
2018-09-21T12:36:12.439Z,27.70
2018-09-21T12:38:39.870Z,27.60
2018-09-21T12:41:07.598Z,27.60
2018-09-21T12:43:34.990Z,27.50
2018-09-21T12:46:04.551Z,27.50
2018-09-21T12:48:32.132Z,27.50
2018-09-21T12:50:59.749Z,27.40
2018-09-21T12:53:27.086Z,27.40
2018-09-21T12:55:54.504Z,27.40
2018-09-21T12:58:22.089Z,27.40
2018-09-21T13:00:51.022Z,27.30
2018-09-21T13:03:19.002Z,27.30
2018-09-21T13:05:47.240Z,27.20
2018-09-21T13:08:14.736Z,27.10
2018-09-21T13:10:42.102Z,27.10
2018-09-21T13:13:09.519Z,27.00
2018-09-21T13:15:36.865Z,27.10
2018-09-21T13:18:04.312Z,27.10
2018-09-21T13:20:31.676Z,27.00
2018-09-21T13:22:59.149Z,27.00
2018-09-21T13:25:26.598Z,27.00
2018-09-21T13:27:53.993Z,26.80
2018-09-21T13:30:21.447Z,26.80
2018-09-21T13:32:48.917Z,26.70
2018-09-21T13:35:16.383Z,26.70
2018-09-21T13:37:43.833Z,26.70
2018-09-21T13:40:11.222Z,26.70
2018-09-21T13:42:38.737Z,26.80
2018-09-21T13:45:06.115Z,26.70
2018-09-21T13:47:33.753Z,26.60
2018-09-21T13:50:01.173Z,26.50
2018-09-21T13:52:28.593Z,26.30
2018-09-21T13:54:56.076Z,26.30
2018-09-21T13:57:23.555Z,26.20
2018-09-21T13:59:52.297Z,26.20
2018-09-21T14:02:20.078Z,26.20
2018-09-21T14:04:47.553Z,26.10
2018-09-21T14:07:15.083Z,26.00
2018-09-21T14:09:42.955Z,25.90
2018-09-21T14:12:10.707Z,25.90
2018-09-21T14:14:38.276Z,25.90
2018-09-21T14:17:06.400Z,25.90
2018-09-21T14:19:33.994Z,25.90
2018-09-21T14:22:01.389Z,25.80
2018-09-21T14:24:28.937Z,25.80
2018-09-21T14:26:56.417Z,25.80
2018-09-21T14:29:25.155Z,25.60
2018-09-21T14:31:52.665Z,25.50
2018-09-21T14:34:21.233Z,25.50
2018-09-21T14:36:49.715Z,25.40
2018-09-21T14:39:17.943Z,25.30
2018-09-21T14:41:45.417Z,25.30
2018-09-21T14:44:13.775Z,25.20
2018-09-21T14:46:41.157Z,25.20
2018-09-21T14:49:08.597Z,25.20
2018-09-21T14:51:36.179Z,25.10
2018-09-21T14:54:03.628Z,25.00
2018-09-21T14:56:31.240Z,24.90
2018-09-21T14:58:58.715Z,24.80
2018-09-21T15:01:26.294Z,24.80
2018-09-21T15:03:53.783Z,24.60
2018-09-21T15:06:21.551Z,24.50
2018-09-21T15:08:49.263Z,24.40
2018-09-21T15:11:16.923Z,24.30
2018-09-21T15:13:44.338Z,24.20
2018-09-21T15:16:11.818Z,24.20
2018-09-21T15:18:43.918Z,24.20
2018-09-21T15:21:11.450Z,23.80
2018-09-21T15:23:38.872Z,23.50
2018-09-21T15:26:06.366Z,23.30
2018-09-21T15:28:33.820Z,23.10
2018-09-21T15:31:01.245Z,22.90
2018-09-21T15:33:29.263Z,22.80
2018-09-21T15:35:56.719Z,22.70
2018-09-21T15:38:24.150Z,22.60
2018-09-21T15:40:51.460Z,22.50
2018-09-21T15:43:19.120Z,22.50
2018-09-21T15:45:46.337Z,22.50
2018-09-21T15:48:13.843Z,22.50
2018-09-21T15:50:41.426Z,22.60
2018-09-21T15:53:08.838Z,22.60
2018-09-21T15:55:36.150Z,22.50
2018-09-21T15:58:03.654Z,22.50
2018-09-21T16:00:31.130Z,22.50
2018-09-21T16:02:58.528Z,22.50
2018-09-21T16:05:26.156Z,22.50
2018-09-21T16:07:53.634Z,22.50
2018-09-21T16:10:21.076Z,22.50
2018-09-21T16:12:48.493Z,22.50
2018-09-21T16:15:16.040Z,22.50
2018-09-21T16:17:43.491Z,22.40
2018-09-21T16:20:10.908Z,22.40
2018-09-21T16:22:38.475Z,22.30
2018-09-21T16:25:06.050Z,22.20
2018-09-21T16:27:33.955Z,21.80
2018-09-21T16:30:01.376Z,20.50
2018-09-21T16:32:28.995Z,19.70
2018-09-21T16:34:56.523Z,19.30
2018-09-21T16:37:24.079Z,18.80
2018-09-21T16:39:51.549Z,18.60
2018-09-21T16:42:18.933Z,18.40
2018-09-21T16:44:46.498Z,17.90
2018-09-21T16:47:13.867Z,17.80
2018-09-21T16:49:41.319Z,17.60
2018-09-21T16:52:08.753Z,17.50
2018-09-21T16:54:36.231Z,17.50
2018-09-21T16:57:03.727Z,17.30
2018-09-21T16:59:31.067Z,17.20
2018-09-21T17:01:58.419Z,17.20
2018-09-21T17:04:25.948Z,17.20
2018-09-21T17:06:53.356Z,17.20
2018-09-21T17:09:20.859Z,17.20
2018-09-21T17:11:48.392Z,17.10
2018-09-21T17:14:16.033Z,16.80
2018-09-21T17:16:43.584Z,16.80
2018-09-21T17:19:11.232Z,16.70
2018-09-21T17:21:38.711Z,16.50
2018-09-21T17:24:14.093Z,16.50
2018-09-21T17:26:41.577Z,16.50
2018-09-21T17:29:09.071Z,16.70
2018-09-21T17:31:36.483Z,16.70
2018-09-21T17:34:03.812Z,16.70
2018-09-21T17:36:31.327Z,16.80
2018-09-21T17:38:58.731Z,16.70
2018-09-21T17:41:26.171Z,16.80
2018-09-21T17:43:53.720Z,16.80
2018-09-21T17:46:21.056Z,16.70
2018-09-21T17:48:48.573Z,16.60
2018-09-21T17:51:16.296Z,16.60
2018-09-21T17:53:43.921Z,16.50
2018-09-21T17:56:11.316Z,16.30
2018-09-21T17:58:38.838Z,16.40
2018-09-21T18:01:06.423Z,16.30
2018-09-21T18:03:33.818Z,16.20
2018-09-21T18:06:01.300Z,16.10
2018-09-21T18:08:28.727Z,16.10
2018-09-21T18:10:56.235Z,16.00
2018-09-21T18:13:23.734Z,16.00
2018-09-21T18:15:51.178Z,16.00
2018-09-21T18:18:18.596Z,15.90
2018-09-21T18:20:46.167Z,16.00
2018-09-21T18:23:13.604Z,16.00
2018-09-21T18:25:41.326Z,15.80
2018-09-21T18:28:08.621Z,15.70
2018-09-21T18:30:36.066Z,15.80
2018-09-21T18:33:04.398Z,15.50
2018-09-21T18:35:31.902Z,15.60
2018-09-21T18:37:59.364Z,15.60
2018-09-21T18:40:26.865Z,15.30
2018-09-21T18:42:54.363Z,15.40
2018-09-21T18:45:21.797Z,15.60
2018-09-21T18:47:49.243Z,15.70
2018-09-21T18:50:16.665Z,15.50
2018-09-21T18:52:44.048Z,15.10
2018-09-21T18:55:11.511Z,15.40
2018-09-21T18:57:41.771Z,15.40
2018-09-21T19:00:09.323Z,15.30
2018-09-21T19:02:36.738Z,15.30
2018-09-21T19:05:04.495Z,15.40
2018-09-21T19:07:31.966Z,15.60
2018-09-21T19:10:00.062Z,15.50
2018-09-21T19:12:27.906Z,15.50
2018-09-21T19:14:55.438Z,15.60
2018-09-21T19:17:23.279Z,15.60
2018-09-21T19:19:53.215Z,15.50
2018-09-21T19:25:48.964Z,15.50
2018-09-21T19:28:16.437Z,15.40
2018-09-21T19:30:43.857Z,15.30
2018-09-21T19:33:12.201Z,15.30
2018-09-21T19:35:40.304Z,15.20
2018-09-21T19:38:08.992Z,15.20
2018-09-21T19:40:36.568Z,15.20
2018-09-21T19:43:04.871Z,15.30
2018-09-21T19:45:32.391Z,15.20
2018-09-21T19:48:01.153Z,15.10
2018-09-21T19:50:28.613Z,15.00
2018-09-21T19:52:56.126Z,15.00
2018-09-21T19:55:23.582Z,15.00
2018-09-21T19:57:51.664Z,15.00
2018-09-21T20:00:19.095Z,15.10
2018-09-21T20:02:46.540Z,15.10
2018-09-21T20:05:14.086Z,15.10
2018-09-21T20:07:41.642Z,15.00
2018-09-21T20:10:09.126Z,14.90
2018-09-21T20:12:36.769Z,14.80
2018-09-21T20:15:04.275Z,15.00
2018-09-21T20:17:31.682Z,14.80
2018-09-21T20:19:59.217Z,14.80
2018-09-21T20:22:26.743Z,14.60
2018-09-21T20:24:54.258Z,14.70
2018-09-21T20:27:21.644Z,14.70
2018-09-21T20:29:49.106Z,14.80
2018-09-21T20:32:22.370Z,14.80
2018-09-21T20:34:49.950Z,14.80
2018-09-21T20:37:17.406Z,14.70
2018-09-21T20:39:44.822Z,14.90
2018-09-21T20:42:12.292Z,14.80
2018-09-21T20:44:39.780Z,14.80
2018-09-21T20:47:07.486Z,14.90
2018-09-21T20:49:35.088Z,14.80
2018-09-21T20:52:02.498Z,14.90
2018-09-21T20:54:30.022Z,14.70
2018-09-21T20:57:56.089Z,14.70
2018-09-21T21:03:39.382Z,14.70
2018-09-21T21:06:07.695Z,14.60
2018-09-21T21:08:37.096Z,14.80
2018-09-21T21:11:04.937Z,14.80
2018-09-21T21:13:33.544Z,14.80
2018-09-21T21:16:01.024Z,14.80
2018-09-21T21:18:28.439Z,14.70
2018-09-21T21:20:55.835Z,14.70
2018-09-21T21:23:23.225Z,14.80
2018-09-21T21:25:50.685Z,14.60
2018-09-21T21:28:18.288Z,14.60
2018-09-21T21:30:46.471Z,14.60
2018-09-21T21:33:13.941Z,14.60
2018-09-21T21:35:41.413Z,14.60
2018-09-21T21:38:08.835Z,14.60
2018-09-21T21:40:36.311Z,14.70
2018-09-21T21:43:03.828Z,14.80
2018-09-21T21:45:31.306Z,14.70
2018-09-21T21:47:58.774Z,14.60
2018-09-21T21:50:26.225Z,14.50
2018-09-21T21:52:53.554Z,14.50
2018-09-21T21:55:20.963Z,14.50
2018-09-21T21:57:48.430Z,14.60
2018-09-21T22:00:15.938Z,14.50
2018-09-21T22:02:43.393Z,14.60
2018-09-21T22:05:10.908Z,14.60
2018-09-21T22:07:38.546Z,14.60
2018-09-21T22:10:13.035Z,14.50
2018-09-21T22:12:46.396Z,14.40
2018-09-21T22:15:16.877Z,14.20
2018-09-21T22:17:44.567Z,14.40
2018-09-21T22:20:11.986Z,14.40
2018-09-21T22:22:39.598Z,14.50
2018-09-21T22:25:07.375Z,14.50
2018-09-21T22:27:34.848Z,14.50
2018-09-21T22:30:02.308Z,14.50
2018-09-21T22:32:29.782Z,14.50
2018-09-21T22:34:57.285Z,14.60
2018-09-21T22:37:24.998Z,14.40
2018-09-21T22:39:52.497Z,14.20
2018-09-21T22:42:19.916Z,14.30
2018-09-21T22:44:47.333Z,14.30
2018-09-21T22:47:14.680Z,14.40
2018-09-21T22:49:43.019Z,14.20
2018-09-21T22:52:10.692Z,14.30
2018-09-21T22:54:39.042Z,14.50
2018-09-21T22:57:07.782Z,14.60
2018-09-21T22:59:35.561Z,14.60
2018-09-21T23:02:03.343Z,14.70
2018-09-21T23:04:30.770Z,14.60
2018-09-21T23:06:58.305Z,14.50
2018-09-21T23:09:25.722Z,14.40
2018-09-21T23:11:53.258Z,14.40
2018-09-21T23:14:20.651Z,14.20
2018-09-21T23:16:48.053Z,14.10
2018-09-21T23:19:15.487Z,14.20
2018-09-21T23:21:42.915Z,14.30
2018-09-21T23:24:10.360Z,14.40
2018-09-21T23:26:37.735Z,14.20
2018-09-21T23:29:05.204Z,14.30
2018-09-21T23:31:32.609Z,14.10
2018-09-21T23:34:00.003Z,14.20
2018-09-21T23:36:27.332Z,14.20
2018-09-21T23:38:54.733Z,14.20
2018-09-21T23:41:22.111Z,14.20
2018-09-21T23:43:49.519Z,14.20
2018-09-21T23:46:16.969Z,14.10
2018-09-21T23:48:44.342Z,14.10
2018-09-21T23:51:11.750Z,14.10
2018-09-21T23:53:39.289Z,14.10
2018-09-21T23:56:07.077Z,14.10
2018-09-21T23:58:34.487Z,14.10
